Time;durP1;ratioP1;P1;durP2;ratioP2;P2;SDS_P1;SDS_P2;PMS_P1;PMS_P2;Temp;Humidity;BMP_temperature;BMP_pressure;BME280_temperature;BME280_humidity;BME280_pressure;Samples;Min_cycle;Max_cycle;Signal;HPM_P1;HPM_P2
2022/02/12 00:01:04;;;;;;;4.65;3.88;;;17.20;62.70;;;;;;5074031;28;20045;-27
2022/02/12 00:03:29;;;;;;;4.38;3.72;;;17.20;62.50;;;;;;5068985;28;20041;-27
2022/02/12 00:05:55;;;;;;;3.97;3.67;;;17.10;62.50;;;;;;5073509;28;20304;-27
2022/02/12 00:08:21;;;;;;;5.30;3.60;;;17.20;62.60;;;;;;5062028;28;20091;-27
2022/02/12 00:10:46;;;;;;;4.18;3.70;;;17.10;62.70;;;;;;5054800;28;20417;-27
2022/02/12 00:13:12;;;;;;;4.07;3.78;;;17.10;62.50;;;;;;5058163;28;20040;-27
2022/02/12 00:15:39;;;;;;;4.00;3.70;;;17.10;62.60;;;;;;5083942;28;20404;-27
2022/02/12 00:18:05;;;;;;;3.70;3.40;;;17.10;62.50;;;;;;5069860;28;20124;-27
2022/02/12 00:20:31;;;;;;;3.60;3.30;;;17.10;62.40;;;;;;5055041;28;20120;-27
2022/02/12 00:22:56;;;;;;;3.80;3.50;;;17.00;62.20;;;;;;5062265;28;20044;-27
2022/02/12 00:25:22;;;;;;;3.83;3.55;;;17.00;62.50;;;;;;5069574;28;20041;-27
2022/02/12 00:27:48;;;;;;;3.63;3.30;;;17.00;62.40;;;;;;5076849;28;20055;-27
2022/02/12 00:30:13;;;;;;;3.83;3.25;;;17.10;62.30;;;;;;5078506;28;20100;-27
2022/02/12 00:32:39;;;;;;;4.35;3.88;;;17.00;62.30;;;;;;5083181;28;20042;-26
2022/02/12 00:35:05;;;;;;;3.72;3.42;;;17.00;62.30;;;;;;5095029;28;20046;-27
2022/02/12 00:37:30;;;;;;;4.13;3.70;;;17.00;62.20;;;;;;5056599;28;20041;-27
2022/02/12 00:39:59;;;;;;;4.28;3.92;;;17.00;62.30;;;;;;5054309;28;20037;-27
2022/02/12 00:42:26;;;;;;;3.58;3.28;;;17.00;62.20;;;;;;5059877;28;20044;-27
2022/02/12 00:44:52;;;;;;;3.75;3.45;;;16.90;62.20;;;;;;5075435;28;20048;-27
2022/02/12 00:47:18;;;;;;;3.38;3.17;;;17.00;62.20;;;;;;5082760;28;20306;-27
2022/02/12 00:49:43;;;;;;;4.25;3.88;;;17.00;62.20;;;;;;5064270;28;20056;-27
2022/02/12 00:52:09;;;;;;;4.55;3.33;;;16.90;62.10;;;;;;5054526;28;20041;-27
2022/02/12 00:54:37;;;;;;;3.85;3.65;;;17.00;62.10;;;;;;5054232;28;20048;-27
2022/02/12 00:57:03;;;;;;;3.47;3.17;;;16.90;62.10;;;;;;5079029;28;20495;-27
2022/02/12 00:59:28;;;;;;;3.25;3.05;;;16.90;62.30;;;;;;5055155;28;20429;-27
2022/02/12 01:01:54;;;;;;;3.30;3.00;;;16.90;62.00;;;;;;5079626;28;20516;-27
2022/02/12 01:04:20;;;;;;;4.85;3.65;;;16.90;62.00;;;;;;5055905;28;20051;-27
2022/02/12 01:06:46;;;;;;;3.38;3.05;;;16.90;62.30;;;;;;5058225;28;20588;-27
2022/02/12 01:09:11;;;;;;;3.35;3.15;;;16.90;62.00;;;;;;5074679;28;20590;-27
2022/02/12 01:11:37;;;;;;;3.83;3.47;;;16.90;62.20;;;;;;5074520;28;20083;-27
2022/02/12 01:14:03;;;;;;;3.03;2.83;;;16.90;62.10;;;;;;5067428;28;20052;-27
2022/02/12 01:16:28;;;;;;;5.43;3.42;;;16.90;61.90;;;;;;5079689;28;20508;-27
2022/02/12 01:18:54;;;;;;;3.53;3.25;;;16.90;62.20;;;;;;5058286;28;20376;-27
2022/02/12 01:21:19;;;;;;;4.18;3.17;;;16.90;62.10;;;;;;5054411;28;20453;-27
2022/02/12 01:23:46;;;;;;;3.38;3.17;;;16.90;62.00;;;;;;5081747;28;20077;-27
2022/02/12 01:26:12;;;;;;;3.20;3.00;;;16.80;62.10;;;;;;5081173;28;20041;-27
2022/02/12 01:28:38;;;;;;;3.60;3.30;;;16.80;62.10;;;;;;5077363;28;20120;-27
2022/02/12 01:31:03;;;;;;;3.40;3.20;;;16.80;62.10;;;;;;5095194;28;20068;-27
2022/02/12 01:33:29;;;;;;;2.80;2.60;;;16.80;62.10;;;;;;5082141;28;20055;-27
2022/02/12 01:35:54;;;;;;;3.13;2.92;;;16.80;62.00;;;;;;5071370;28;20579;-27
2022/02/12 01:38:21;;;;;;;3.30;3.08;;;16.80;62.30;;;;;;5075625;28;20052;-27
2022/02/12 01:40:47;;;;;;;3.38;3.10;;;16.70;62.20;;;;;;5067973;28;20045;-25
2022/02/12 01:43:13;;;;;;;3.85;2.58;;;16.80;62.20;;;;;;5060152;28;20044;-27
2022/02/12 01:45:39;;;;;;;3.03;2.50;;;16.70;62.10;;;;;;5077514;28;20050;-27
2022/02/12 01:48:05;;;;;;;3.08;2.88;;;16.70;62.50;;;;;;5085837;28;20563;-27
2022/02/12 01:50:31;;;;;;;3.40;2.83;;;16.70;62.20;;;;;;5077924;28;20037;-27
2022/02/12 01:52:56;;;;;;;2.92;2.63;;;16.70;62.30;;;;;;5076485;28;20531;-26
2022/02/12 01:55:22;;;;;;;2.95;2.75;;;16.60;62.30;;;;;;5068131;28;20045;-27
2022/02/12 01:57:47;;;;;;;3.10;2.90;;;16.70;62.20;;;;;;5062053;28;20140;-27
2022/02/12 02:00:15;;;;;;;2.90;2.70;;;16.70;62.20;;;;;;5075821;28;20456;-27
2022/02/12 02:02:41;;;;;;;2.80;2.60;;;16.60;62.20;;;;;;5078123;28;20135;-27
2022/02/12 02:05:10;;;;;;;3.90;2.63;;;16.60;62.10;;;;;;5071591;28;20072;-27
2022/02/12 02:07:37;;;;;;;3.35;3.05;;;16.70;62.10;;;;;;5057674;28;20113;-27
2022/02/12 02:10:03;;;;;;;3.10;2.90;;;16.70;62.00;;;;;;5060972;28;20052;-27
2022/02/12 02:12:29;;;;;;;2.50;2.40;;;16.70;62.00;;;;;;5060222;28;20045;-27
2022/02/12 02:14:54;;;;;;;2.85;2.60;;;16.60;62.00;;;;;;5076555;28;20043;-27
2022/02/12 02:17:20;;;;;;;2.25;2.15;;;16.60;62.00;;;;;;5092802;28;20079;-27
2022/02/12 02:19:46;;;;;;;2.30;2.20;;;16.60;61.90;;;;;;5076195;28;20036;-27
2022/02/12 02:22:12;;;;;;;2.60;2.40;;;16.60;61.90;;;;;;5073364;28;20040;-27
2022/02/12 02:24:38;;;;;;;2.58;2.38;;;16.60;61.90;;;;;;5055981;28;20534;-27
2022/02/12 02:27:18;;;;;;;2.30;2.20;;;16.60;61.90;;;;;;5077722;28;20051;-27
2022/02/12 02:29:44;;;;;;;2.60;2.40;;;16.60;61.90;;;;;;5081913;28;20502;-27
2022/02/12 02:32:11;;;;;;;3.00;2.70;;;16.60;61.80;;;;;;5056419;28;20147;-27
2022/02/12 02:34:37;;;;;;;2.47;2.15;;;16.70;61.60;;;;;;5082902;28;20075;-27
2022/02/12 02:37:04;;;;;;;2.67;2.33;;;16.70;61.70;;;;;;5085740;28;20078;-27
2022/02/12 02:39:29;;;;;;;2.78;2.47;;;16.60;61.60;;;;;;5076872;28;20137;-27
2022/02/12 02:41:55;;;;;;;2.40;2.30;;;16.60;61.60;;;;;;5078167;28;20080;-27
2022/02/12 02:44:21;;;;;;;2.55;2.42;;;16.60;62.60;;;;;;5093865;28;20127;-27
2022/02/12 02:46:47;;;;;;;2.67;2.47;;;16.70;61.60;;;;;;5087976;28;20041;-27
2022/02/12 02:49:12;;;;;;;2.67;2.47;;;16.70;61.50;;;;;;5074499;28;20052;-27
2022/02/12 02:57:07;;;;;;;3.53;2.78;;;16.70;61.40;;;;;;5065387;28;20243;-27
2022/02/12 02:59:33;;;;;;;2.60;2.40;;;16.60;61.50;;;;;;5063555;28;20079;-27
2022/02/12 03:01:58;;;;;;;2.20;2.10;;;16.60;61.50;;;;;;5056942;28;20063;-27
2022/02/12 03:04:25;;;;;;;2.33;2.22;;;16.60;61.50;;;;;;5073112;28;20041;-27
2022/02/12 03:06:50;;;;;;;2.40;2.30;;;16.60;61.50;;;;;;5073862;28;20072;-27
2022/02/12 03:09:16;;;;;;;2.63;2.35;;;16.60;61.50;;;;;;5057276;28;20102;-27
2022/02/12 03:11:42;;;;;;;2.10;2.00;;;16.60;61.50;;;;;;5069050;28;20480;-27
2022/02/12 03:14:07;;;;;;;2.38;2.15;;;16.60;61.50;;;;;;5083911;28;20056;-27
2022/02/12 03:16:33;;;;;;;2.40;2.30;;;16.60;61.40;;;;;;5056239;28;20053;-27
2022/02/12 03:18:58;;;;;;;2.53;2.35;;;16.70;61.30;;;;;;5073816;28;20045;-27
2022/02/12 03:21:24;;;;;;;2.10;2.00;;;16.60;61.20;;;;;;5075973;28;20040;-27
2022/02/12 03:23:50;;;;;;;2.38;2.28;;;16.60;61.20;;;;;;5089973;28;20123;-27
2022/02/12 03:26:16;;;;;;;2.72;2.53;;;16.60;61.20;;;;;;5068292;28;20079;-27
2022/02/12 03:28:41;;;;;;;2.10;2.00;;;16.60;61.10;;;;;;5057268;28;20084;-27
2022/02/12 03:31:07;;;;;;;2.00;1.90;;;16.60;61.10;;;;;;5063810;28;20140;-27
2022/02/12 03:33:33;;;;;;;2.10;2.00;;;16.60;61.10;;;;;;5074027;28;20056;-27
2022/02/12 03:35:59;;;;;;;2.20;2.10;;;16.60;61.00;;;;;;5078421;28;20718;-27
2022/02/12 03:38:26;;;;;;;2.10;2.00;;;16.60;61.10;;;;;;5075761;28;20048;-27
2022/02/12 03:40:54;;;;;;;2.42;2.30;;;16.60;61.00;;;;;;5075559;28;20072;-27
2022/02/12 03:43:19;;;;;;;2.85;1.70;;;16.60;61.10;;;;;;5073496;28;20044;-27
2022/02/12 03:45:45;;;;;;;2.50;1.65;;;16.60;61.00;;;;;;5064348;28;20561;-27
2022/02/12 03:48:11;;;;;;;1.92;1.83;;;16.60;61.10;;;;;;5055748;28;20052;-27
2022/02/12 03:50:37;;;;;;;1.92;1.83;;;16.60;61.00;;;;;;5067944;28;20040;-27
2022/02/12 03:53:04;;;;;;;2.38;2.20;;;16.60;61.10;;;;;;5090081;28;20047;-27
2022/02/12 03:55:29;;;;;;;2.25;2.15;;;16.50;60.90;;;;;;5071502;28;20075;-27
2022/02/12 03:57:55;;;;;;;2.40;2.22;;;16.60;61.00;;;;;;5065067;28;20529;-27
2022/02/12 04:00:21;;;;;;;2.20;2.10;;;16.60;60.90;;;;;;5066735;28;20570;-27
2022/02/12 04:02:47;;;;;;;2.03;1.92;;;16.60;60.80;;;;;;5074844;28;20127;-26
2022/02/12 04:05:14;;;;;;;2.00;1.90;;;16.60;60.80;;;;;;5058288;28;20056;-27
2022/02/12 04:07:42;;;;;;;1.70;1.60;;;16.60;60.90;;;;;;5066656;28;20053;-27
2022/02/12 04:10:08;;;;;;;1.60;1.50;;;16.50;60.90;;;;;;5054704;28;20064;-27
2022/02/12 04:12:35;;;;;;;1.85;1.75;;;16.60;60.90;;;;;;5066958;28;20067;-27
2022/02/12 04:15:01;;;;;;;1.75;1.65;;;16.60;60.80;;;;;;5062367;28;20036;-27
2022/02/12 04:17:26;;;;;;;2.03;1.92;;;16.60;60.80;;;;;;5074384;28;20060;-27
2022/02/12 04:19:52;;;;;;;2.47;1.90;;;16.60;61.00;;;;;;5067796;28;20068;-27
2022/02/12 04:22:17;;;;;;;1.70;1.60;;;16.50;61.00;;;;;;5076039;28;20106;-27
2022/02/12 04:24:43;;;;;;;3.72;1.95;;;16.60;60.80;;;;;;5071784;28;20155;-27
2022/02/12 04:27:09;;;;;;;2.08;1.98;;;16.50;60.80;;;;;;5074224;28;20047;-27
2022/02/12 04:29:34;;;;;;;1.63;1.52;;;16.60;60.70;;;;;;5076759;28;20059;-27
2022/02/12 04:32:00;;;;;;;1.67;1.58;;;16.50;60.70;;;;;;5064494;28;20039;-27
2022/02/12 04:34:26;;;;;;;1.98;1.80;;;16.50;60.80;;;;;;5088601;28;20421;-27
2022/02/12 04:36:53;;;;;;;1.52;1.42;;;16.50;60.90;;;;;;5093235;28;20043;-27
2022/02/12 04:39:19;;;;;;;1.85;1.75;;;16.50;60.80;;;;;;5076413;28;20496;-27
2022/02/12 04:41:45;;;;;;;1.60;1.50;;;16.50;60.80;;;;;;5089861;28;20468;-27
2022/02/12 04:44:11;;;;;;;1.45;1.35;;;16.50;60.70;;;;;;5091214;28;20048;-27
2022/02/12 04:46:38;;;;;;;1.63;1.52;;;16.50;60.70;;;;;;5074358;28;20108;-27
2022/02/12 04:49:05;;;;;;;1.75;1.65;;;16.50;60.70;;;;;;5072446;28;20044;-27
2022/02/12 04:51:31;;;;;;;1.70;1.60;;;16.40;60.70;;;;;;5074511;28;20102;-27
2022/02/12 04:53:58;;;;;;;1.60;1.50;;;16.50;60.60;;;;;;5061938;28;20053;-27
2022/02/12 04:56:24;;;;;;;1.50;1.40;;;16.50;60.50;;;;;;5054400;28;20049;-27
2022/02/12 04:58:50;;;;;;;1.40;1.30;;;16.50;60.70;;;;;;5054314;28;20048;-27
2022/02/12 05:01:22;;;;;;;1.65;1.55;;;16.50;60.60;;;;;;5071450;28;20071;-27
2022/02/12 05:03:51;;;;;;;1.75;1.65;;;16.50;60.50;;;;;;5074898;28;20056;-27
2022/02/12 05:06:17;;;;;;;1.95;1.75;;;16.40;60.70;;;;;;5058187;28;20520;-27
2022/02/12 05:08:43;;;;;;;1.48;1.38;;;16.50;60.70;;;;;;5076142;28;20135;-27
2022/02/12 05:11:09;;;;;;;2.10;2.00;;;16.50;60.60;;;;;;5077203;28;20121;-27
2022/02/12 05:13:34;;;;;;;1.88;1.77;;;16.50;60.60;;;;;;5078016;28;20051;-27
2022/02/12 05:16:00;;;;;;;1.75;1.65;;;16.50;60.70;;;;;;5065554;28;20037;-27
2022/02/12 05:18:26;;;;;;;1.92;1.77;;;16.40;60.70;;;;;;5072110;28;20048;-27
2022/02/12 05:20:51;;;;;;;1.90;1.77;;;16.40;60.90;;;;;;5065038;28;20029;-27
2022/02/12 05:23:17;;;;;;;1.48;1.38;;;16.40;60.80;;;;;;5070014;28;20488;-27
2022/02/12 05:25:42;;;;;;;1.58;1.48;;;16.40;60.70;;;;;;5089151;28;20036;-27
2022/02/12 05:28:08;;;;;;;1.70;1.60;;;16.40;60.80;;;;;;5076494;28;20177;-27
2022/02/12 05:30:33;;;;;;;1.48;1.38;;;16.40;60.90;;;;;;5077375;28;20048;-27
2022/02/12 05:32:59;;;;;;;1.60;1.50;;;16.40;60.90;;;;;;5077566;28;20041;-25
2022/02/12 05:35:25;;;;;;;1.10;1.10;;;16.40;60.90;;;;;;5077265;28;20049;-27
2022/02/12 05:37:51;;;;;;;1.42;1.33;;;16.30;61.10;;;;;;5090053;28;20100;-27
2022/02/12 05:40:17;;;;;;;1.63;1.52;;;16.30;61.20;;;;;;5066281;28;20069;-27
2022/02/12 05:42:42;;;;;;;1.60;1.50;;;16.30;61.20;;;;;;5070234;28;20041;-27
2022/02/12 05:45:08;;;;;;;1.45;1.35;;;16.30;61.00;;;;;;5065390;28;20457;-27
2022/02/12 05:47:38;;;;;;;1.52;1.42;;;16.30;61.10;;;;;;5077855;28;20059;-27
2022/02/12 05:50:04;;;;;;;1.50;1.40;;;16.30;61.10;;;;;;5074701;28;20061;-27
2022/02/12 05:52:30;;;;;;;1.50;1.40;;;16.30;61.10;;;;;;5079734;28;20047;-28
2022/02/12 05:54:56;;;;;;;1.48;1.38;;;16.30;61.00;;;;;;5071171;28;20049;-27
2022/02/12 05:57:21;;;;;;;1.40;1.30;;;16.30;61.10;;;;;;5073340;28;20140;-27
2022/02/12 05:59:47;;;;;;;1.50;1.40;;;16.30;61.30;;;;;;5063949;28;20123;-27
2022/02/12 06:02:12;;;;;;;1.40;1.30;;;16.30;61.30;;;;;;5068155;28;20082;-28
2022/02/12 06:04:38;;;;;;;1.45;1.35;;;16.30;61.30;;;;;;5057468;28;20052;-27
2022/02/12 06:07:04;;;;;;;0.95;0.95;;;16.30;61.30;;;;;;5070286;28;20041;-27
2022/02/12 06:09:29;;;;;;;1.27;1.17;;;16.20;61.20;;;;;;5063739;28;20525;-28
2022/02/12 06:11:55;;;;;;;1.40;1.30;;;16.30;61.20;;;;;;5065390;28;20052;-27
2022/02/12 06:14:20;;;;;;;1.17;1.08;;;16.30;61.20;;;;;;5076342;28;20048;-29
2022/02/12 06:16:46;;;;;;;1.50;1.40;;;16.30;61.20;;;;;;5066208;28;20045;-29
2022/02/12 06:19:12;;;;;;;1.30;1.20;;;16.30;61.30;;;;;;5076562;28;20071;-27
2022/02/12 06:21:38;;;;;;;1.20;1.10;;;16.20;61.30;;;;;;5081861;28;20044;-28
2022/02/12 06:24:03;;;;;;;1.23;1.13;;;16.20;61.20;;;;;;5076518;28;20050;-27
2022/02/12 06:26:29;;;;;;;1.13;1.10;;;16.20;61.30;;;;;;5071827;28;20131;-28
2022/02/12 06:28:55;;;;;;;1.10;1.10;;;16.20;61.30;;;;;;5072909;28;20053;-27
2022/02/12 06:31:20;;;;;;;1.40;1.30;;;16.20;61.30;;;;;;5057645;28;20044;-28
2022/02/12 06:33:46;;;;;;;1.00;0.90;;;16.20;61.20;;;;;;5056708;28;20125;-27
2022/02/12 06:36:12;;;;;;;1.30;1.20;;;16.20;61.20;;;;;;5068029;28;20037;-27
2022/02/12 06:38:37;;;;;;;1.27;1.23;;;16.20;61.10;;;;;;5077079;28;20378;-27
2022/02/12 06:41:03;;;;;;;1.10;1.10;;;16.20;61.20;;;;;;5064347;28;20883;-27
2022/02/12 06:43:29;;;;;;;1.13;1.08;;;16.20;61.30;;;;;;5065377;28;20045;-27
2022/02/12 06:45:54;;;;;;;1.20;1.20;;;16.20;61.30;;;;;;5071107;28;20040;-27
2022/02/12 06:48:20;;;;;;;2.33;1.40;;;16.20;61.50;;;;;;5073467;28;20080;-27
2022/02/12 06:50:46;;;;;;;1.17;1.08;;;16.20;61.30;;;;;;5075263;28;20119;-27
2022/02/12 06:53:12;;;;;;;1.33;1.23;;;16.20;61.20;;;;;;5056081;28;20037;-27
2022/02/12 06:55:37;;;;;;;1.10;1.10;;;16.20;61.20;;;;;;5056749;28;20045;-27
2022/02/12 06:58:03;;;;;;;2.05;1.33;;;16.20;61.20;;;;;;5066896;28;20387;-27
2022/02/12 07:00:30;;;;;;;1.15;1.13;;;16.20;61.10;;;;;;5063248;28;20036;-27
2022/02/12 07:02:56;;;;;;;0.85;0.85;;;16.10;61.20;;;;;;5063652;28;20142;-28
2022/02/12 07:05:22;;;;;;;0.90;0.90;;;16.20;61.20;;;;;;5063570;28;20075;-27
2022/02/12 07:07:49;;;;;;;1.02;0.93;;;16.10;61.30;;;;;;5074840;28;20060;-28
2022/02/12 07:10:16;;;;;;;1.08;1.02;;;16.10;61.20;;;;;;5066907;28;20063;-27
2022/02/12 07:12:41;;;;;;;1.83;1.10;;;16.10;61.20;;;;;;5070029;28;20055;-27
2022/02/12 07:15:08;;;;;;;1.55;1.02;;;16.10;61.10;;;;;;5072468;28;20037;-26
2022/02/12 07:17:38;;;;;;;1.15;1.05;;;16.10;61.30;;;;;;5071656;28;20057;-27
2022/02/12 07:20:05;;;;;;;1.52;1.25;;;16.10;61.40;;;;;;5069011;28;20139;-27
2022/02/12 07:22:31;;;;;;;1.05;0.95;;;16.00;61.50;;;;;;5075279;28;20040;-27
2022/02/12 07:24:57;;;;;;;1.27;1.17;;;16.00;62.90;;;;;;5073972;28;20563;-27
2022/02/12 07:27:22;;;;;;;1.00;1.00;;;16.00;63.60;;;;;;5070932;28;20048;-28
2022/02/12 07:29:48;;;;;;;1.30;1.20;;;15.90;63.90;;;;;;5072060;28;20051;-26
2022/02/12 07:32:13;;;;;;;1.20;1.20;;;15.90;63.80;;;;;;5076113;28;20044;-26
2022/02/12 07:34:39;;;;;;;1.38;1.25;;;15.90;63.90;;;;;;5073824;28;20063;-27
2022/02/12 07:37:04;;;;;;;1.15;1.05;;;15.90;64.00;;;;;;5069903;28;20127;-27
2022/02/12 07:39:30;;;;;;;1.10;1.10;;;15.90;63.80;;;;;;5073245;28;20401;-27
2022/02/12 07:41:56;;;;;;;0.77;0.77;;;15.80;63.80;;;;;;5071842;28;20049;-27
2022/02/12 07:44:21;;;;;;;0.85;0.85;;;15.90;63.70;;;;;;5062782;28;20121;-27
2022/02/12 07:46:47;;;;;;;1.17;0.93;;;15.90;63.00;;;;;;5060009;28;20052;-27
2022/02/12 07:49:13;;;;;;;0.80;0.80;;;16.00;62.70;;;;;;5070245;28;20115;-28
2022/02/12 07:51:38;;;;;;;0.70;0.70;;;16.00;62.50;;;;;;5071714;28;20049;-27
2022/02/12 07:54:04;;;;;;;0.90;0.90;;;16.10;62.20;;;;;;5064710;28;20417;-27
2022/02/12 07:56:30;;;;;;;1.30;1.20;;;16.10;62.30;;;;;;5068156;28;20060;-27
2022/02/12 07:58:56;;;;;;;1.00;0.90;;;16.10;62.40;;;;;;5061101;28;20084;-27
2022/02/12 08:01:21;;;;;;;0.75;0.75;;;16.10;62.30;;;;;;5056033;28;20064;-27
2022/02/12 08:03:47;;;;;;;1.08;1.00;;;16.10;62.50;;;;;;5066371;28;20036;-27
2022/02/12 08:08:57;;;;;;;1.05;1.02;;;16.00;62.50;;;;;;5083164;28;20420;-27
2022/02/12 08:11:23;;;;;;;1.30;1.17;;;16.00;62.60;;;;;;5075436;28;20071;-26
2022/02/12 08:13:50;;;;;;;1.00;1.00;;;16.00;62.70;;;;;;4716516;28;10000369;-27
2022/02/12 08:16:16;;;;;;;1.67;1.30;;;16.00;63.20;;;;;;5054336;28;20897;-27
2022/02/12 08:18:42;;;;;;;3.53;1.75;;;16.00;63.30;;;;;;5067208;28;20048;-26
2022/02/12 08:21:07;;;;;;;4.22;1.75;;;16.00;63.50;;;;;;5067467;28;20055;-26
2022/02/12 08:23:33;;;;;;;6.15;1.50;;;16.00;64.00;;;;;;5055425;28;20058;-26
2022/02/12 08:25:59;;;;;;;1.80;1.33;;;16.00;64.40;;;;;;5059667;28;20074;-27
2022/02/12 08:28:24;;;;;;;5.80;1.35;;;16.00;64.80;;;;;;5065757;28;20551;-27
2022/02/12 08:30:50;;;;;;;3.17;1.40;;;16.00;64.70;;;;;;5055681;28;20044;-27
2022/02/12 08:33:15;;;;;;;2.78;1.70;;;16.00;64.80;;;;;;5064665;28;20155;-27
2022/02/12 08:35:41;;;;;;;2.83;1.23;;;16.00;64.60;;;;;;5057735;28;20127;-27
2022/02/12 08:38:06;;;;;;;3.17;1.60;;;16.00;64.60;;;;;;5062202;28;20580;-24
2022/02/12 08:40:32;;;;;;;4.45;2.00;;;16.00;64.60;;;;;;5068762;28;20078;-28
2022/02/12 08:42:58;;;;;;;5.68;2.70;;;16.00;64.30;;;;;;5057463;28;20459;-27
2022/02/12 08:45:24;;;;;;;6.20;2.55;;;16.00;64.40;;;;;;5065556;28;20044;-27
2022/02/12 08:47:49;;;;;;;6.78;4.22;;;16.10;64.80;;;;;;5061790;28;20063;-26
2022/02/12 08:50:15;;;;;;;10.10;4.82;;;16.20;64.50;;;;;;5053598;28;20049;-27
2022/02/12 08:52:41;;;;;;;13.70;6.95;;;16.20;64.70;;;;;;5070125;28;20512;-27
2022/02/12 08:55:08;;;;;;;14.35;6.70;;;16.20;65.00;;;;;;5062817;28;20053;-26
2022/02/12 08:57:34;;;;;;;19.33;8.23;;;16.20;64.80;;;;;;5072732;28;20610;-27
2022/02/12 08:59:59;;;;;;;22.08;7.70;;;16.30;65.00;;;;;;5070904;28;20452;-27
2022/02/12 09:02:25;;;;;;;20.23;9.82;;;16.20;64.80;;;;;;5066962;28;20052;-27
2022/02/12 09:04:50;;;;;;;25.30;8.73;;;16.30;65.70;;;;;;5076746;28;20128;-27
2022/02/12 09:07:16;;;;;;;18.45;8.88;;;16.30;65.10;;;;;;5055987;28;20041;-27
2022/02/12 09:09:42;;;;;;;30.35;9.75;;;16.30;65.50;;;;;;5074289;28;20056;-26
2022/02/12 09:12:09;;;;;;;17.70;8.68;;;16.30;65.40;;;;;;5064812;28;20436;-26
2022/02/12 09:14:35;;;;;;;25.52;10.90;;;16.40;65.60;;;;;;5071564;28;20054;-27
2022/02/12 09:17:01;;;;;;;35.47;11.38;;;16.40;65.60;;;;;;5078971;28;20128;-27
2022/02/12 09:19:26;;;;;;;30.55;11.30;;;16.40;65.80;;;;;;5077019;28;20410;-26
2022/02/12 09:21:52;;;;;;;28.17;12.05;;;16.40;66.00;;;;;;5070880;28;20040;-26
2022/02/12 09:24:18;;;;;;;32.97;12.35;;;16.40;65.70;;;;;;5051099;28;20052;-27
2022/02/12 09:26:43;;;;;;;27.02;11.60;;;16.40;64.70;;;;;;5060604;28;20052;-28
2022/02/12 09:29:09;;;;;;;31.15;10.95;;;16.30;64.30;;;;;;5061675;28;20059;-26
2022/02/12 09:31:34;;;;;;;22.92;10.40;;;16.30;64.30;;;;;;5074317;28;20145;-27
2022/02/12 09:34:00;;;;;;;23.88;10.63;;;16.30;63.70;;;;;;5073604;28;20064;-27
2022/02/12 09:36:26;;;;;;;24.13;9.90;;;16.30;63.30;;;;;;5072492;28;20040;-27
2022/02/12 09:38:51;;;;;;;20.27;9.85;;;16.30;63.40;;;;;;5074630;28;20531;-27
2022/02/12 09:41:25;;;;;;;22.25;9.90;;;16.40;62.50;;;;;;5063779;28;20037;-27
2022/02/12 09:43:54;;;;;;;19.20;9.68;;;16.30;62.40;;;;;;5068092;28;20516;-27
2022/02/12 09:46:31;;;;;;;21.60;10.15;;;16.30;60.90;;;;;;5071920;28;20041;-27
2022/02/12 09:48:58;;;;;;;23.23;10.20;;;16.30;61.40;;;;;;5068892;28;20052;-27
2022/02/12 09:51:24;;;;;;;15.48;8.70;;;16.40;61.90;;;;;;5054674;28;20044;-26
2022/02/12 09:53:50;;;;;;;22.17;9.57;;;16.30;61.30;;;;;;5057465;28;20056;-27
2022/02/12 09:56:16;;;;;;;17.02;8.88;;;16.30;61.40;;;;;;5058733;28;20061;-26
2022/02/12 09:58:42;;;;;;;19.48;9.18;;;16.30;61.40;;;;;;5058488;28;20056;-27
2022/02/12 10:01:08;;;;;;;15.95;8.88;;;16.30;61.50;;;;;;5054605;28;20120;-27
2022/02/12 10:03:34;;;;;;;18.23;8.63;;;16.40;61.60;;;;;;5057891;28;20515;-27
2022/02/12 10:05:59;;;;;;;22.23;8.10;;;16.40;61.10;;;;;;5057723;28;20153;-28
2022/02/12 10:08:25;;;;;;;14.82;7.70;;;16.40;61.10;;;;;;5058097;28;20139;-28
2022/02/12 10:10:51;;;;;;;15.07;8.18;;;16.40;61.50;;;;;;5059011;28;20493;-27
2022/02/12 10:13:27;;;;;;;13.43;7.63;;;16.40;61.10;;;;;;5057470;28;20044;-26
2022/02/12 10:15:54;;;;;;;14.80;8.43;;;16.40;61.10;;;;;;5058059;28;20044;-27
2022/02/12 10:18:21;;;;;;;17.52;7.65;;;16.50;61.40;;;;;;5056511;28;20090;-27
2022/02/12 10:20:47;;;;;;;17.42;7.70;;;16.50;61.70;;;;;;5056793;28;20469;-27
2022/02/12 10:23:23;;;;;;;12.68;7.38;;;16.50;61.50;;;;;;5057051;28;20136;-26
2022/02/12 10:26:09;;;;;;;12.73;7.75;;;16.60;61.60;;;;;;5055311;28;20044;-28
2022/02/12 10:28:42;;;;;;;20.75;8.50;;;16.70;61.30;;;;;;5058092;28;20198;-28
2022/02/12 10:31:09;;;;;;;11.55;6.78;;;16.70;61.90;;;;;;5058508;28;20625;-26
2022/02/12 10:33:41;;;;;;;11.85;7.03;;;16.70;61.10;;;;;;5058082;28;20053;-27
2022/02/12 10:36:07;;;;;;;13.48;7.13;;;16.70;61.00;;;;;;5057517;28;20051;-28
2022/02/12 10:38:33;;;;;;;13.13;6.90;;;16.80;60.80;;;;;;5056059;28;20060;-29
2022/02/12 10:41:09;;;;;;;10.40;6.18;;;16.80;60.70;;;;;;5056764;28;20482;-27
2022/02/12 10:43:36;;;;;;;12.02;6.13;;;16.80;61.00;;;;;;5058262;28;20511;-26
2022/02/12 10:46:02;;;;;;;10.07;5.95;;;16.90;61.60;;;;;;5076773;28;20136;-26
2022/02/12 10:48:35;;;;;;;9.73;6.25;;;16.90;61.30;;;;;;5072810;28;20048;-26
2022/02/12 10:51:06;;;;;;;9.40;6.00;;;16.90;61.20;;;;;;5067945;28;20068;-26
2022/02/12 10:53:32;;;;;;;10.02;6.47;;;17.00;61.20;;;;;;5075049;28;20045;-26
2022/02/12 10:55:59;;;;;;;8.77;6.47;;;17.00;61.30;;;;;;5076679;28;20680;-26
2022/02/12 10:58:25;;;;;;;7.57;5.63;;;17.00;61.30;;;;;;5060797;28;20091;-26
2022/02/12 11:00:50;;;;;;;11.15;5.82;;;17.00;61.00;;;;;;5065431;28;20040;-26
2022/02/12 11:03:16;;;;;;;10.98;5.82;;;17.00;60.90;;;;;;5063749;28;20044;-26
2022/02/12 11:05:43;;;;;;;6.82;5.35;;;17.00;61.10;;;;;;5062068;28;20561;-26
2022/02/12 11:08:09;;;;;;;7.32;4.90;;;16.90;61.10;;;;;;5068261;28;20033;-26
2022/02/12 11:10:38;;;;;;;7.70;5.07;;;17.00;61.30;;;;;;5056772;28;22894;-26
2022/02/12 11:13:04;;;;;;;7.63;5.47;;;17.00;61.20;;;;;;5082213;28;20124;-26
2022/02/12 11:15:30;;;;;;;6.93;5.05;;;17.00;61.00;;;;;;5059126;28;20044;-26
2022/02/12 11:17:57;;;;;;;7.63;5.10;;;17.00;60.90;;;;;;5071061;28;20043;-26
2022/02/12 11:20:23;;;;;;;7.55;5.05;;;17.00;61.00;;;;;;5072961;28;20063;-26
2022/02/12 11:22:50;;;;;;;7.20;5.03;;;17.00;61.10;;;;;;5064339;28;20120;-27
2022/02/12 11:25:32;;;;;;;7.82;5.28;;;17.00;60.90;;;;;;5070060;28;20104;-25
2022/02/12 11:28:08;;;;;;;5.72;4.82;;;17.00;61.00;;;;;;5075679;28;20045;-26
2022/02/12 11:30:35;;;;;;;7.22;4.85;;;17.00;60.90;;;;;;5064698;28;20044;-26
2022/02/12 11:33:07;;;;;;;7.60;4.88;;;17.00;60.90;;;;;;5069169;28;20068;-27
2022/02/12 11:35:32;;;;;;;4.95;4.22;;;17.00;60.80;;;;;;5064273;28;20059;-26
2022/02/12 11:37:59;;;;;;;5.35;4.25;;;17.00;60.70;;;;;;5065317;28;20045;-26
2022/02/12 11:40:28;;;;;;;5.75;4.65;;;17.00;60.70;;;;;;4704073;28;10000312;-26
2022/02/12 11:42:57;;;;;;;5.25;3.95;;;17.00;60.60;;;;;;5062854;28;20063;-26
2022/02/12 11:45:36;;;;;;;5.07;4.10;;;17.10;60.10;;;;;;5065104;28;20634;-26
2022/02/12 11:48:27;;;;;;;7.05;4.47;;;17.10;60.20;;;;;;5056022;28;20067;-25
2022/02/12 11:51:05;;;;;;;3.35;3.05;;;17.10;60.50;;;;;;5067830;28;20052;-26
2022/02/12 11:53:46;;;;;;;6.43;4.05;;;17.10;60.20;;;;;;5064796;28;20100;-27
2022/02/12 11:56:17;;;;;;;4.53;3.45;;;17.10;60.20;;;;;;5054980;28;20505;-26
2022/02/12 11:58:43;;;;;;;6.75;3.92;;;17.20;60.20;;;;;;5056793;28;20528;-26
2022/02/12 12:01:32;;;;;;;4.95;3.15;;;17.10;60.20;;;;;;5063368;28;20041;-29
2022/02/12 12:04:10;;;;;;;4.00;3.53;;;17.20;60.10;;;;;;5061776;28;20048;-26
2022/02/12 12:06:39;;;;;;;5.68;3.92;;;17.20;60.10;;;;;;5063275;28;20472;-26
2022/02/12 12:09:12;;;;;;;3.83;3.53;;;17.20;59.90;;;;;;5074367;28;20068;-26
2022/02/12 12:11:39;;;;;;;4.65;3.80;;;17.20;60.10;;;;;;5060827;28;20425;-26
2022/02/12 12:14:22;;;;;;;3.80;3.50;;;17.20;59.90;;;;;;5053045;28;20048;-26
2022/02/12 12:16:58;;;;;;;4.23;3.70;;;17.20;59.80;;;;;;5068982;28;20041;-26
2022/02/12 12:19:28;;;;;;;9.30;3.70;;;17.30;60.00;;;;;;5069815;28;20051;-26
2022/02/12 12:22:02;;;;;;;3.53;3.22;;;17.20;60.00;;;;;;5056892;28;20102;-26
2022/02/12 12:24:27;;;;;;;3.65;2.85;;;17.20;60.70;;;;;;5054850;28;20045;-26
2022/02/12 12:26:53;;;;;;;3.78;3.35;;;17.20;59.90;;;;;;5055118;28;20099;-26
2022/02/12 12:32:10;;;;;;;3.60;2.92;;;17.30;59.90;;;;;;5070174;28;20070;-26
2022/02/12 12:34:37;;;;;;;3.85;3.55;;;17.30;59.90;;;;;;5050698;28;20188;-26
2022/02/12 12:37:04;;;;;;;3.33;3.00;;;17.20;59.90;;;;;;5051536;28;20536;-26
2022/02/12 12:39:31;;;;;;;3.28;2.95;;;17.30;59.90;;;;;;5058676;28;20080;-27
2022/02/12 12:41:57;;;;;;;4.15;3.53;;;17.30;59.90;;;;;;5068974;28;20056;-27
2022/02/12 12:44:23;;;;;;;3.55;3.25;;;17.20;59.40;;;;;;5062329;28;20045;-26
2022/02/12 12:46:52;;;;;;;3.88;3.15;;;17.20;59.90;;;;;;5078440;28;20070;-26
2022/02/12 12:49:33;;;;;;;3.38;2.72;;;17.20;59.90;;;;;;5051501;28;20059;-26
2022/02/12 12:51:59;;;;;;;4.07;2.90;;;17.20;59.90;;;;;;5070324;28;20048;-27
2022/02/12 12:54:40;;;;;;;2.97;2.67;;;17.30;60.00;;;;;;5071126;28;20044;-24